St. Bartholomew — WDI6417 — position and weather

sailwx.info

Track history (hours):
 
Tides and Currents Weather Stations Pressure Air Temp Water Temp Dewpoint Dewpoint Depression Visibility Wind Speed Wind Dir Waves Ship Positions

St. Bartholomew

Owner: Marquette Transportation Company Gulf-Inland, LLC, Jefferson, LA. More information available from US FCC via Universal Licensing System and Coast Guard Vessel Documentation Center.

Last reported at 2017-Nov-18 10:18 UTC. Time now 2017-Nov-19 03:06 UTC.
Position N 31°57' W 091°11'.

Length 223 m.

Type: Towing. MMSI: 367718490.

Date/timePositionNaut miles runAvg speedWind from/ knotsBaromVisibWave heightAir tempDewpointWater temp
2017-Nov-18 10:18N 31°57' W 091°11'3 7.1
2017-Nov-18 09:55N 31°59' W 091°09'3 7.9
2017-Nov-18 09:31N 31°60' W 091°05'6 7.1
2017-Nov-18 08:40N 32°06' W 091°06'1 8.1
2017-Nov-18 08:30N 32°07' W 091°07'3 6.5
2017-Nov-18 08:00N 32°07' W 091°03'3 6.3
2017-Nov-18 07:30N 32°10' W 091°00'4 7.1
2017-Nov-18 07:00N 32°13' W 090°59'4 8.1
2017-Nov-18 06:30N 32°17' W 090°57'4 8.1
2017-Nov-18 06:00N 32°20' W 090°54'3 6.4
2017-Nov-18 05:30N 32°21' W 090°57'3 5.5
2017-Nov-18 05:00N 32°23' W 091°00'3 6.5
2017-Nov-18 04:30N 32°26' W 091°01'3 6.9
2017-Nov-18 04:00N 32°27' W 091°05'3 6.7
2017-Nov-18 03:30N 32°30' W 091°07'4 7.9
2017-Nov-18 03:00N 32°34' W 091°06'3 6.7
2017-Nov-18 02:30N 32°36' W 091°09'  
Track history (hours):
 
Tides and Currents Weather Stations Pressure Air Temp Water Temp Dewpoint Dewpoint Depression Visibility Wind Speed Wind Dir Waves Ship Positions

St. Bartholomew

Owner: Marquette Transportation Company Gulf-Inland, LLC, Jefferson, LA. More information available from US FCC via Universal Licensing System and Coast Guard Vessel Documentation Center.

Last reported at 2017-Nov-18 10:18 UTC. Time now 2017-Nov-19 03:06 UTC.
Position N 31°57' W 091°11'.

Length 223 m.

Type: Towing. MMSI: 367718490.

Date/timePositionNaut miles runAvg speedWind from/ knotsBaromVisibWave heightAir tempDewpointWater temp
2017-Nov-18 10:18N 31°57' W 091°11'3 7.1
2017-Nov-18 09:55N 31°59' W 091°09'3 7.9
2017-Nov-18 09:31N 31°60' W 091°05'6 7.1
2017-Nov-18 08:40N 32°06' W 091°06'1 8.1
2017-Nov-18 08:30N 32°07' W 091°07'3 6.5
2017-Nov-18 08:00N 32°07' W 091°03'3 6.3
2017-Nov-18 07:30N 32°10' W 091°00'4 7.1
2017-Nov-18 07:00N 32°13' W 090°59'4 8.1
2017-Nov-18 06:30N 32°17' W 090°57'4 8.1
2017-Nov-18 06:00N 32°20' W 090°54'3 6.4
2017-Nov-18 05:30N 32°21' W 090°57'3 5.5
2017-Nov-18 05:00N 32°23' W 091°00'3 6.5
2017-Nov-18 04:30N 32°26' W 091°01'3 6.9
2017-Nov-18 04:00N 32°27' W 091°05'3 6.7
2017-Nov-18 03:30N 32°30' W 091°07'4 7.9
2017-Nov-18 03:00N 32°34' W 091°06'3 6.7
2017-Nov-18 02:30N 32°36' W 091°09'  

Dump ship's entire track history